Downpatrick, United Kingdom
Current Conditions -  °F | °C
As of 9:50 PM on Monday 22 Dec 2014 (Local Time) from EGAC Reporting Station
Drizzle Drizzle  
Wind Chill: 50°   Ceiling: 1800
Heat Index: 50°   Visibility: 4mi
Dew Point: 48°   Wind: 8mph
Humidity: 94%   Direction: 200°SSW
Pressure: 29.74"   Gusts: NA
Location:  54.33°N, 5.7°W
Report Text: EGAC 222150Z 20007KT 6000 DZ FEW006 SCT012 BKN018 10/09 Q1007
Loading
Personal Weather Stations






























Interactive Weather Map New forecast layout! Learn more

10-Day Weather Forecast

Advertisements
Track Severe Weather on mobile